createdAt,value
2018-09-24T00:01:45.841Z,0.80
2018-09-24T00:04:14.970Z,0.70
2018-09-24T00:06:44.321Z,0.70
2018-09-24T00:09:13.470Z,1.27
2018-09-24T00:11:42.705Z,1.40
2018-09-24T00:14:11.897Z,0.87
2018-09-24T00:16:41.087Z,0.70
2018-09-24T00:19:10.273Z,0.80
2018-09-24T00:21:39.449Z,0.67
2018-09-24T00:24:08.621Z,0.70
2018-09-24T00:26:37.896Z,0.63
2018-09-24T00:29:07.362Z,0.83
2018-09-24T00:31:36.499Z,0.60
2018-09-24T00:34:05.672Z,0.70
2018-09-24T00:36:34.854Z,0.70
2018-09-24T00:39:05.104Z,0.70
2018-09-24T00:41:34.279Z,0.90
2018-09-24T00:44:03.658Z,0.90
2018-09-24T00:46:32.812Z,0.60
2018-09-24T00:49:02.004Z,0.87
2018-09-24T00:51:31.185Z,0.80
2018-09-24T00:54:00.356Z,0.70
2018-09-24T00:56:29.489Z,0.50
2018-09-24T00:58:58.633Z,0.50
2018-09-24T01:01:27.803Z,0.60
2018-09-24T01:03:56.950Z,0.90
2018-09-24T01:06:26.123Z,0.70
2018-09-24T01:08:55.252Z,0.73
2018-09-24T01:11:24.429Z,1.00
2018-09-24T01:13:53.663Z,0.60
2018-09-24T01:16:22.790Z,0.53
2018-09-24T01:18:51.982Z,0.70
2018-09-24T01:21:21.405Z,0.40
2018-09-24T01:23:50.573Z,0.70
2018-09-24T01:26:20.317Z,0.70
2018-09-24T01:28:49.460Z,0.40
2018-09-24T01:31:18.611Z,0.80
2018-09-24T01:33:47.726Z,0.50
2018-09-24T01:36:16.943Z,0.80
2018-09-24T01:38:46.045Z,0.73
2018-09-24T01:41:15.206Z,0.73
2018-09-24T01:43:44.374Z,0.50
2018-09-24T01:46:13.521Z,0.80
2018-09-24T01:48:42.671Z,0.83
2018-09-24T01:51:12.109Z,0.90
2018-09-24T01:53:42.906Z,0.77
2018-09-24T01:56:12.050Z,0.57
2018-09-24T01:58:41.482Z,0.50
2018-09-24T02:01:10.609Z,0.60
2018-09-24T02:03:39.754Z,1.00
2018-09-24T02:06:09.052Z,0.80
2018-09-24T02:08:44.149Z,0.90
2018-09-24T02:11:13.363Z,0.60
2018-09-24T02:13:49.248Z,0.60
2018-09-24T02:16:18.869Z,0.60
2018-09-24T02:18:48.554Z,0.80
2018-09-24T02:21:18.066Z,0.60
2018-09-24T02:23:47.248Z,0.60
2018-09-24T02:26:16.403Z,0.50
2018-09-24T02:28:45.510Z,0.60
2018-09-24T02:31:14.704Z,0.50
2018-09-24T02:33:43.842Z,0.50
2018-09-24T02:36:13.018Z,0.50
2018-09-24T02:38:42.242Z,0.60
2018-09-24T02:41:11.367Z,0.60
2018-09-24T02:43:40.844Z,0.80
2018-09-24T02:46:09.981Z,0.60
2018-09-24T02:48:39.111Z,0.50
2018-09-24T02:51:09.147Z,0.70
2018-09-24T02:53:41.291Z,0.70
2018-09-24T02:56:10.600Z,0.73
2018-09-24T02:58:39.729Z,0.43
2018-09-24T03:01:08.894Z,0.60
2018-09-24T03:03:37.973Z,0.70
2018-09-24T03:06:07.098Z,0.50
2018-09-24T03:08:38.167Z,0.50
2018-09-24T03:11:07.561Z,0.60
2018-09-24T03:13:36.665Z,0.90
2018-09-24T03:16:05.846Z,0.50
2018-09-24T03:18:34.999Z,0.80
2018-09-24T03:21:04.144Z,0.40
2018-09-24T03:23:33.315Z,0.70
2018-09-24T03:26:02.441Z,0.70
2018-09-24T03:28:31.680Z,0.60
2018-09-24T03:31:00.871Z,0.60
2018-09-24T03:33:30.468Z,0.50
2018-09-24T03:35:59.640Z,0.60
2018-09-24T03:38:28.817Z,0.50
2018-09-24T03:40:57.958Z,0.60
2018-09-24T03:43:27.062Z,0.50
2018-09-24T03:45:56.210Z,0.87
2018-09-24T03:48:25.332Z,0.97
2018-09-24T03:50:54.487Z,0.70
2018-09-24T03:53:23.733Z,0.70
2018-09-24T03:55:52.846Z,0.53
2018-09-24T03:58:22.086Z,0.90
2018-09-24T04:00:51.861Z,0.60
2018-09-24T04:03:21.062Z,0.70
2018-09-24T04:05:55.526Z,0.60
2018-09-24T04:08:29.853Z,0.50
2018-09-24T04:11:04.292Z,0.60
2018-09-24T04:13:38.808Z,0.63
2018-09-24T04:16:13.258Z,0.70
2018-09-24T04:18:47.550Z,0.60
2018-09-24T04:21:21.973Z,0.87
2018-09-24T04:23:56.482Z,0.73
2018-09-24T04:26:30.886Z,0.60
2018-09-24T04:29:05.279Z,0.90
2018-09-24T04:31:39.656Z,0.80
2018-09-24T04:34:14.057Z,0.80
2018-09-24T04:36:48.375Z,0.93
2018-09-24T04:39:22.754Z,0.80
2018-09-24T04:41:57.381Z,0.80
2018-09-24T04:44:31.889Z,0.70
2018-09-24T04:47:06.543Z,0.80
2018-09-24T04:49:40.842Z,0.70
2018-09-24T04:52:15.283Z,0.60
2018-09-24T04:54:49.746Z,0.70
2018-09-24T04:57:24.066Z,0.60
2018-09-24T04:59:58.317Z,0.70
2018-09-24T05:02:32.882Z,0.77
2018-09-24T05:05:07.275Z,0.60
2018-09-24T05:07:41.730Z,0.80
2018-09-24T05:10:16.197Z,0.90
2018-09-24T05:12:50.751Z,1.20
2018-09-24T05:15:25.016Z,0.90
2018-09-24T05:17:59.456Z,0.80
2018-09-24T05:20:33.924Z,0.80
2018-09-24T05:23:08.300Z,0.70
2018-09-24T05:25:42.569Z,1.20
2018-09-24T05:28:17.081Z,0.80
2018-09-24T05:30:51.407Z,1.00
2018-09-24T05:33:25.878Z,1.00
2018-09-24T05:36:00.377Z,0.80
2018-09-24T05:38:35.031Z,0.90
2018-09-24T05:41:09.465Z,0.90
2018-09-24T05:43:43.969Z,0.97
2018-09-24T05:46:18.376Z,0.80
2018-09-24T05:48:52.756Z,0.87
2018-09-24T05:51:27.179Z,0.93
2018-09-24T05:54:01.690Z,0.63
2018-09-24T05:56:36.144Z,0.77
2018-09-24T05:59:10.719Z,0.90
2018-09-24T06:01:45.047Z,0.73
2018-09-24T06:04:19.401Z,0.63
2018-09-24T06:06:53.877Z,0.93
2018-09-24T06:09:28.252Z,0.70
2018-09-24T06:12:02.575Z,0.90
2018-09-24T06:14:36.876Z,0.87
2018-09-24T06:17:11.286Z,1.10
2018-09-24T06:19:45.869Z,0.97
2018-09-24T06:22:20.232Z,1.33
2018-09-24T06:24:54.738Z,1.30
2018-09-24T06:27:29.217Z,1.00
2018-09-24T06:30:03.551Z,1.20
2018-09-24T06:32:38.021Z,1.07
2018-09-24T06:35:12.484Z,0.97
2018-09-24T06:37:47.470Z,1.00
2018-09-24T06:40:21.919Z,1.17
2018-09-24T06:42:56.228Z,0.87
2018-09-24T06:45:30.675Z,1.07
2018-09-24T06:48:06.687Z,0.73
2018-09-24T06:50:41.366Z,1.00
2018-09-24T06:53:15.706Z,1.07
2018-09-24T06:55:50.223Z,0.93
2018-09-24T06:58:24.777Z,0.93
2018-09-24T07:00:59.081Z,1.20
2018-09-24T07:03:34.006Z,1.23
2018-09-24T07:06:08.433Z,0.80
2018-09-24T07:08:42.918Z,0.83
2018-09-24T07:11:17.253Z,0.90
2018-09-24T07:13:51.682Z,1.20
2018-09-24T07:16:25.960Z,0.97
2018-09-24T07:19:00.358Z,0.93
2018-09-24T07:21:34.677Z,1.20
2018-09-24T07:24:08.900Z,1.20
2018-09-24T07:26:43.421Z,1.20
2018-09-24T07:29:17.853Z,1.40
2018-09-24T07:31:52.440Z,1.57
2018-09-24T07:34:26.796Z,1.23
2018-09-24T07:37:01.192Z,0.97
2018-09-24T07:39:35.694Z,1.13
2018-09-24T07:42:10.240Z,1.30
2018-09-24T07:44:44.758Z,1.60
2018-09-24T07:47:19.234Z,1.40
2018-09-24T07:49:53.508Z,1.20
2018-09-24T07:52:27.783Z,1.13
2018-09-24T07:55:02.152Z,1.40
2018-09-24T07:57:36.601Z,1.37
2018-09-24T08:00:10.899Z,1.17
2018-09-24T08:02:45.333Z,1.23
2018-09-24T08:05:20.692Z,1.33
2018-09-24T08:07:54.997Z,1.07
2018-09-24T08:10:29.500Z,1.10
2018-09-24T08:13:04.359Z,1.53
2018-09-24T08:15:38.792Z,1.17
2018-09-24T08:18:13.262Z,1.50
2018-09-24T08:20:47.609Z,1.10
2018-09-24T08:23:23.003Z,1.20
2018-09-24T08:25:57.353Z,0.97
2018-09-24T08:28:31.768Z,1.50
2018-09-24T08:31:06.414Z,1.40
2018-09-24T08:33:40.745Z,1.57
2018-09-24T08:36:15.281Z,1.00
2018-09-24T08:38:49.597Z,1.20
2018-09-24T08:41:23.921Z,1.00
2018-09-24T08:43:59.103Z,1.23
2018-09-24T08:46:33.598Z,1.47
2018-09-24T08:49:08.347Z,0.90
2018-09-24T08:51:43.205Z,1.40
2018-09-24T08:54:17.654Z,0.90
2018-09-24T08:56:52.056Z,1.40
2018-09-24T08:59:26.419Z,1.23
2018-09-24T09:02:00.847Z,1.60
2018-09-24T09:04:35.212Z,1.33
2018-09-24T09:07:09.766Z,1.13
2018-09-24T09:09:44.114Z,1.27
2018-09-24T09:12:18.467Z,1.93
2018-09-24T09:14:52.635Z,1.20
2018-09-24T09:17:28.154Z,1.57
2018-09-24T09:20:02.726Z,1.10
2018-09-24T09:22:37.763Z,1.10
2018-09-24T09:25:12.235Z,1.10
2018-09-24T09:27:46.556Z,1.37
2018-09-24T09:30:20.864Z,1.20
2018-09-24T09:32:55.174Z,1.10
2018-09-24T09:35:29.677Z,1.43
2018-09-24T09:38:04.027Z,1.13
2018-09-24T09:40:38.514Z,1.50
2018-09-24T09:43:12.908Z,1.70
2018-09-24T09:45:47.256Z,1.70
2018-09-24T09:48:21.577Z,1.70
2018-09-24T09:50:55.911Z,1.30
2018-09-24T09:53:30.755Z,1.07
2018-09-24T09:56:05.195Z,1.87
2018-09-24T09:58:39.530Z,1.63
2018-09-24T10:01:14.063Z,1.10
2018-09-24T10:03:48.658Z,1.20
2018-09-24T10:06:23.042Z,1.43
2018-09-24T10:08:57.488Z,1.33
2018-09-24T10:11:31.826Z,1.63
2018-09-24T10:14:06.857Z,1.77
2018-09-24T10:16:41.160Z,1.30
2018-09-24T10:19:15.480Z,1.53
2018-09-24T10:21:49.962Z,1.53
2018-09-24T10:24:24.471Z,1.33
2018-09-24T10:26:58.726Z,1.47
2018-09-24T10:29:33.184Z,1.43
2018-09-24T10:32:07.647Z,1.40
2018-09-24T10:34:41.881Z,1.50
2018-09-24T10:37:16.201Z,1.20
2018-09-24T10:39:50.564Z,1.17
2018-09-24T10:42:25.316Z,1.40
2018-09-24T10:44:59.843Z,1.27
2018-09-24T10:47:35.109Z,1.63
2018-09-24T10:50:09.524Z,2.00
2018-09-24T10:52:43.865Z,1.37
2018-09-24T10:55:18.662Z,1.20
2018-09-24T10:57:53.161Z,2.00
2018-09-24T11:00:27.622Z,1.07
2018-09-24T11:03:02.072Z,0.90
2018-09-24T11:05:36.370Z,1.30
2018-09-24T11:08:10.859Z,1.07
2018-09-24T11:10:46.876Z,1.40
2018-09-24T11:13:21.337Z,1.00
2018-09-24T11:15:56.080Z,1.20
2018-09-24T11:18:30.583Z,1.10
2018-09-24T11:21:04.931Z,1.30
2018-09-24T11:23:39.857Z,1.20
2018-09-24T11:28:48.714Z,1.10
2018-09-24T11:31:23.166Z,1.60
2018-09-24T11:33:57.875Z,1.53
2018-09-24T11:36:32.391Z,0.97
2018-09-24T11:39:06.872Z,1.13
2018-09-24T11:41:41.437Z,1.10
2018-09-24T11:44:15.762Z,1.50
2018-09-24T11:46:50.288Z,1.37
2018-09-24T11:49:24.760Z,1.60
2018-09-24T11:51:59.090Z,1.40
2018-09-24T11:54:33.429Z,1.50
2018-09-24T11:57:07.794Z,1.60
2018-09-24T11:59:42.527Z,0.90
2018-09-24T12:02:17.075Z,1.57
2018-09-24T12:04:51.383Z,1.90
2018-09-24T12:07:25.754Z,1.47
2018-09-24T12:10:00.234Z,1.50
2018-09-24T12:12:34.660Z,1.30
2018-09-24T12:15:09.314Z,1.40
2018-09-24T12:17:43.568Z,1.23
2018-09-24T12:20:18.056Z,1.40
2018-09-24T12:22:52.365Z,1.30
2018-09-24T12:25:26.710Z,1.50
2018-09-24T12:28:01.188Z,1.27
2018-09-24T12:30:35.840Z,1.50
2018-09-24T12:33:10.261Z,1.13
2018-09-24T12:35:44.482Z,1.10
2018-09-24T12:38:19.257Z,1.70
2018-09-24T12:40:54.260Z,1.27
2018-09-24T12:43:29.107Z,1.23
2018-09-24T12:46:07.375Z,1.20
2018-09-24T12:48:42.879Z,1.43
2018-09-24T12:51:17.132Z,1.90
2018-09-24T12:53:53.004Z,1.17
2018-09-24T12:56:29.154Z,1.87
2018-09-24T12:59:03.684Z,1.90
2018-09-24T13:01:37.985Z,1.50
2018-09-24T13:04:12.446Z,1.17
2018-09-24T13:06:46.917Z,1.60
2018-09-24T13:09:21.224Z,1.60
2018-09-24T13:11:55.572Z,1.80
2018-09-24T13:14:30.009Z,2.00
2018-09-24T13:17:05.126Z,1.00
2018-09-24T13:19:39.653Z,1.80
2018-09-24T13:22:14.144Z,1.70
2018-09-24T13:24:48.516Z,1.60
2018-09-24T13:27:22.997Z,1.50
2018-09-24T13:29:57.338Z,2.37
2018-09-24T13:32:31.785Z,1.30
2018-09-24T13:35:06.304Z,1.67
2018-09-24T13:37:40.572Z,1.20
2018-09-24T13:40:15.101Z,1.10
2018-09-24T13:42:49.509Z,1.53
2018-09-24T13:45:23.985Z,1.17
2018-09-24T13:47:58.190Z,1.83
2018-09-24T13:50:32.493Z,1.40
2018-09-24T13:53:07.083Z,2.40
2018-09-24T13:55:41.755Z,1.87
2018-09-24T13:58:16.238Z,2.00
2018-09-24T14:00:51.798Z,1.17
2018-09-24T14:03:26.337Z,1.20
2018-09-24T14:06:00.822Z,1.50
2018-09-24T14:08:35.292Z,1.40
2018-09-24T14:11:09.794Z,1.40
2018-09-24T14:13:44.098Z,1.50
2018-09-24T14:16:19.244Z,1.37
2018-09-24T14:18:53.672Z,1.70
2018-09-24T14:21:27.939Z,1.27
2018-09-24T14:24:02.480Z,1.27
2018-09-24T14:26:37.020Z,1.43
2018-09-24T14:29:11.541Z,1.63
2018-09-24T14:31:45.903Z,1.10
2018-09-24T14:34:20.698Z,1.40
2018-09-24T14:36:55.091Z,1.37
2018-09-24T14:39:29.570Z,1.17
2018-09-24T14:42:04.072Z,1.40
2018-09-24T14:44:38.410Z,1.40
2018-09-24T14:47:12.730Z,1.30
2018-09-24T14:49:47.155Z,1.10
2018-09-24T14:52:21.648Z,1.47
2018-09-24T14:54:56.085Z,1.27
2018-09-24T14:57:30.552Z,1.30
2018-09-24T15:00:04.978Z,1.50
2018-09-24T15:02:39.640Z,1.43
2018-09-24T15:05:14.597Z,1.30
2018-09-24T15:07:49.371Z,1.53
2018-09-24T15:10:23.636Z,1.87
2018-09-24T15:12:58.129Z,1.20
2018-09-24T15:15:32.456Z,1.50
2018-09-24T15:18:06.930Z,1.20
2018-09-24T15:20:41.623Z,1.37
2018-09-24T15:23:16.273Z,1.43
2018-09-24T15:25:50.934Z,1.50
2018-09-24T15:28:25.386Z,1.27
2018-09-24T15:30:59.730Z,1.73
2018-09-24T15:33:35.037Z,1.30
2018-09-24T15:36:09.496Z,1.67
2018-09-24T15:38:43.779Z,1.80
2018-09-24T15:41:18.269Z,1.57
2018-09-24T15:43:52.812Z,1.10
2018-09-24T15:46:27.295Z,1.70
2018-09-24T15:49:02.301Z,2.00
2018-09-24T15:51:36.742Z,1.80
2018-09-24T15:54:11.587Z,1.57
2018-09-24T15:56:45.938Z,1.50
2018-09-24T15:59:20.522Z,1.80
2018-09-24T16:01:54.991Z,1.30
2018-09-24T16:04:29.458Z,1.83
2018-09-24T16:07:03.998Z,1.63
2018-09-24T16:09:38.520Z,1.10
2018-09-24T16:12:14.105Z,1.57
2018-09-24T16:14:49.378Z,1.80
2018-09-24T16:17:23.608Z,2.27
2018-09-24T16:19:57.912Z,2.07
2018-09-24T16:22:32.128Z,1.80
2018-09-24T16:25:06.525Z,1.93
2018-09-24T16:27:41.497Z,1.40
2018-09-24T16:30:16.686Z,1.50
2018-09-24T16:32:51.293Z,1.40
2018-09-24T16:35:26.141Z,1.93
2018-09-24T16:38:00.558Z,1.53
2018-09-24T16:40:34.922Z,1.47
2018-09-24T16:43:09.628Z,2.10
2018-09-24T16:45:44.283Z,1.80
2018-09-24T16:48:18.837Z,1.93
2018-09-24T16:50:53.437Z,1.60
2018-09-24T16:53:27.894Z,2.50
2018-09-24T16:56:02.378Z,1.87
2018-09-24T16:58:37.681Z,1.77
2018-09-24T17:01:12.341Z,1.77
2018-09-24T17:03:46.764Z,2.10
2018-09-24T17:06:21.166Z,1.90
2018-09-24T17:08:55.496Z,2.00
2018-09-24T17:11:29.841Z,1.80
2018-09-24T17:14:04.370Z,1.60
2018-09-24T17:16:38.803Z,2.23
2018-09-24T17:19:13.654Z,2.40
2018-09-24T17:21:48.217Z,1.87
2018-09-24T17:24:22.604Z,2.20
2018-09-24T17:26:56.886Z,2.53
2018-09-24T17:29:31.378Z,1.70
2018-09-24T17:32:05.822Z,2.80
2018-09-24T17:34:40.774Z,2.00
2018-09-24T17:37:15.168Z,2.73
2018-09-24T17:39:49.778Z,2.00
2018-09-24T17:42:24.277Z,2.00
2018-09-24T17:44:58.716Z,1.50
2018-09-24T17:47:33.567Z,1.87
2018-09-24T17:50:07.927Z,2.23
2018-09-24T17:52:42.418Z,2.03
2018-09-24T17:55:17.241Z,1.97
2018-09-24T17:57:51.748Z,1.90
2018-09-24T18:00:26.057Z,2.07
2018-09-24T18:03:00.410Z,1.60
2018-09-24T18:05:35.743Z,1.50
2018-09-24T18:08:10.063Z,2.00
2018-09-24T18:10:44.260Z,1.53
2018-09-24T18:13:18.627Z,1.80
2018-09-24T18:15:52.914Z,1.73
2018-09-24T18:18:27.433Z,1.80
2018-09-24T18:21:02.200Z,2.30
2018-09-24T18:23:38.093Z,1.80
2018-09-24T18:26:12.485Z,1.47
2018-09-24T18:28:46.814Z,1.60
2018-09-24T18:31:21.452Z,2.50
2018-09-24T18:33:55.825Z,2.53
2018-09-24T18:36:31.568Z,1.60
2018-09-24T18:39:06.157Z,2.10
2018-09-24T18:41:40.718Z,1.93
2018-09-24T18:44:15.257Z,2.20
2018-09-24T18:46:49.701Z,1.90
2018-09-24T18:49:24.028Z,2.10
2018-09-24T18:51:59.411Z,2.53
2018-09-24T18:54:33.923Z,2.33
2018-09-24T18:57:08.453Z,2.07
2018-09-24T18:59:42.933Z,2.90
2018-09-24T19:02:17.255Z,2.13
2018-09-24T19:04:52.686Z,1.83
2018-09-24T19:07:27.089Z,1.70
2018-09-24T19:10:01.636Z,2.00
2018-09-24T19:12:36.004Z,2.53
2018-09-24T19:15:10.582Z,2.10
2018-09-24T19:17:45.375Z,2.13
2018-09-24T19:20:20.342Z,1.73
2018-09-24T19:22:54.664Z,2.20
2018-09-24T19:25:28.981Z,3.13
2018-09-24T19:28:03.336Z,2.30
2018-09-24T19:30:37.745Z,2.30
2018-09-24T19:33:12.256Z,2.23
2018-09-24T19:35:46.837Z,2.50
2018-09-24T19:38:21.190Z,1.80
2018-09-24T19:40:55.773Z,2.10
2018-09-24T19:43:30.127Z,4.10
2018-09-24T19:46:04.618Z,2.27
2018-09-24T19:48:38.975Z,2.30
2018-09-24T19:51:13.487Z,2.10
2018-09-24T19:53:47.834Z,1.70
2018-09-24T19:56:22.558Z,2.10
2018-09-24T19:58:57.114Z,2.57
2018-09-24T20:01:34.843Z,1.43
2018-09-24T20:04:09.567Z,2.00
2018-09-24T20:06:43.984Z,2.17
2018-09-24T20:09:18.348Z,3.33
2018-09-24T20:11:52.816Z,4.00
2018-09-24T20:14:28.254Z,3.17
2018-09-24T20:17:02.670Z,2.20
2018-09-24T20:19:37.077Z,2.10
2018-09-24T20:22:13.633Z,2.40
2018-09-24T20:24:48.321Z,2.13
2018-09-24T20:27:22.645Z,1.90
2018-09-24T20:29:57.073Z,2.70
2018-09-24T20:32:31.497Z,2.50
2018-09-24T20:35:05.928Z,2.53
2018-09-24T20:37:40.185Z,2.30
2018-09-24T20:40:14.626Z,2.70
2018-09-24T20:42:49.146Z,2.70
2018-09-24T20:45:23.757Z,3.20
2018-09-24T20:47:58.027Z,3.00
2018-09-24T20:50:32.298Z,2.90
2018-09-24T20:53:06.814Z,3.20
2018-09-24T20:55:41.230Z,3.10
2018-09-24T20:58:15.534Z,3.27
2018-09-24T21:00:50.271Z,3.47
2018-09-24T21:03:24.772Z,3.10
2018-09-24T21:05:59.227Z,3.10
2018-09-24T21:08:33.507Z,2.67
2018-09-24T21:11:08.822Z,3.20
2018-09-24T21:13:43.645Z,2.80
2018-09-24T21:16:18.022Z,3.10
2018-09-24T21:18:52.473Z,2.80
2018-09-24T21:21:26.850Z,3.60
2018-09-24T21:24:01.338Z,3.60
2018-09-24T21:26:35.613Z,3.27
2018-09-24T21:29:09.820Z,3.30
2018-09-24T21:31:44.067Z,3.30
2018-09-24T21:34:19.230Z,3.13
2018-09-24T21:36:54.086Z,3.17
2018-09-24T21:39:28.581Z,2.90
2018-09-24T21:42:03.824Z,2.50
2018-09-24T21:44:38.391Z,3.13
2018-09-24T21:47:12.913Z,2.97
2018-09-24T21:49:47.674Z,3.27
2018-09-24T21:52:28.892Z,2.50
2018-09-24T21:55:03.701Z,2.97
2018-09-24T21:57:38.121Z,3.53
2018-09-24T22:00:12.604Z,3.40
2018-09-24T22:02:47.046Z,3.30
2018-09-24T22:05:21.541Z,3.10
2018-09-24T22:07:55.841Z,2.87
2018-09-24T22:10:31.029Z,2.97
2018-09-24T22:13:05.478Z,3.07
2018-09-24T22:15:39.841Z,3.70
2018-09-24T22:18:15.906Z,3.60
2018-09-24T22:20:50.521Z,3.00
2018-09-24T22:23:25.063Z,3.40
2018-09-24T22:25:59.576Z,3.73
2018-09-24T22:28:34.083Z,4.00
2018-09-24T22:31:08.760Z,3.43
2018-09-24T22:33:43.029Z,3.40
2018-09-24T22:36:17.800Z,4.03
2018-09-24T22:38:56.012Z,3.77
2018-09-24T22:41:30.473Z,3.50
2018-09-24T22:44:04.892Z,3.50
2018-09-24T22:46:40.040Z,3.30
2018-09-24T22:49:14.393Z,3.20
2018-09-24T22:51:49.184Z,3.97
2018-09-24T22:54:23.605Z,3.67
2018-09-24T22:56:58.448Z,4.17
2018-09-24T22:59:33.795Z,3.43
2018-09-24T23:02:08.427Z,3.50
2018-09-24T23:04:42.714Z,3.53
2018-09-24T23:07:17.740Z,3.97
2018-09-24T23:09:52.169Z,3.40
2018-09-24T23:12:27.008Z,3.27
2018-09-24T23:15:01.413Z,3.53
2018-09-24T23:17:36.258Z,3.93
2018-09-24T23:20:10.659Z,3.20
2018-09-24T23:22:45.119Z,3.07
2018-09-24T23:25:19.622Z,3.80
2018-09-24T23:27:54.145Z,3.03
2018-09-24T23:30:28.584Z,3.97
2018-09-24T23:33:03.031Z,3.07
2018-09-24T23:35:38.423Z,3.90
2018-09-24T23:38:12.728Z,3.90
2018-09-24T23:40:47.729Z,3.73
2018-09-24T23:43:22.114Z,4.47
2018-09-24T23:45:56.626Z,3.80
2018-09-24T23:48:30.922Z,2.90
2018-09-24T23:51:05.715Z,3.73
2018-09-24T23:53:39.995Z,3.60
2018-09-24T23:56:14.760Z,2.87
2018-09-24T23:58:49.111Z,4.20
